createdAt,value
2022-12-31T00:01:13.219Z,99588.53
2022-12-31T00:03:44.209Z,99593.16
2022-12-31T00:06:19.142Z,99598.63
2022-12-31T00:08:48.402Z,99597.06
2022-12-31T00:11:17.319Z,99568.06
2022-12-31T00:13:46.866Z,99582.56
2022-12-31T00:16:19.354Z,99568.63
2022-12-31T00:18:52.368Z,99573.84
2022-12-31T00:21:22.658Z,99579.91
2022-12-31T00:23:51.111Z,99574.81
2022-12-31T00:26:24.841Z,99561.97
2022-12-31T00:28:54.953Z,99565.50
2022-12-31T00:31:25.526Z,99561.13
2022-12-31T00:33:55.952Z,99555.66
2022-12-31T00:36:28.035Z,99555.03
2022-12-31T00:38:58.803Z,99551.72
2022-12-31T00:41:29.259Z,99549.00
2022-12-31T00:43:57.796Z,99547.88
2022-12-31T00:46:26.770Z,99558.59
2022-12-31T00:48:56.985Z,99557.28
2022-12-31T00:51:27.520Z,99560.28
2022-12-31T00:53:56.932Z,99572.28
2022-12-31T00:56:28.071Z,99576.34
2022-12-31T00:58:56.847Z,99578.47
2022-12-31T01:01:27.948Z,99581.47
2022-12-31T01:04:01.828Z,99589.69
2022-12-31T01:06:30.497Z,99588.84
2022-12-31T01:08:59.157Z,99591.59
2022-12-31T01:11:30.060Z,99592.69
2022-12-31T01:14:00.537Z,99603.84
2022-12-31T01:16:33.402Z,99610.41
2022-12-31T01:19:06.950Z,99614.81
2022-12-31T01:21:36.577Z,99627.44
2022-12-31T01:24:05.616Z,99635.06
2022-12-31T01:26:34.199Z,99624.59
2022-12-31T01:29:02.630Z,99642.09
2022-12-31T01:31:31.269Z,99641.72
2022-12-31T01:34:00.027Z,99640.69
2022-12-31T01:36:32.042Z,99639.00
2022-12-31T01:39:03.138Z,99642.00
2022-12-31T01:41:36.718Z,99638.41
2022-12-31T01:44:51.767Z,99637.56
2022-12-31T01:47:30.475Z,99632.47
2022-12-31T01:50:04.521Z,99633.53
2022-12-31T01:52:38.544Z,99640.91
2022-12-31T01:55:16.028Z,99641.16
2022-12-31T01:57:47.020Z,99641.16
2022-12-31T02:00:17.377Z,99642.56
2022-12-31T02:02:45.866Z,99639.59
2022-12-31T02:05:24.576Z,99637.22
2022-12-31T02:07:55.452Z,99634.78
2022-12-31T02:10:23.909Z,99642.16
2022-12-31T02:12:53.374Z,99634.22
2022-12-31T02:15:38.446Z,99643.75
2022-12-31T02:18:19.016Z,99649.22
2022-12-31T02:21:29.742Z,99628.75
2022-12-31T02:24:51.031Z,99644.56
2022-12-31T02:27:36.823Z,99630.91
2022-12-31T02:30:14.263Z,99632.06
2022-12-31T02:33:05.397Z,99635.38
2022-12-31T02:35:42.838Z,99640.84
2022-12-31T02:38:20.198Z,99644.69
2022-12-31T02:40:49.119Z,99646.34
2022-12-31T02:43:17.514Z,99654.53
2022-12-31T02:45:55.614Z,99654.53
2022-12-31T02:48:41.903Z,99648.84
2022-12-31T02:51:26.130Z,99645.38
2022-12-31T02:54:18.582Z,99648.72
2022-12-31T02:56:58.373Z,99649.56
2022-12-31T02:59:52.174Z,99654.19
2022-12-31T03:02:24.270Z,99658.00
2022-12-31T03:04:54.862Z,99657.13
2022-12-31T03:07:25.362Z,99675.47
2022-12-31T03:09:54.201Z,99678.84
2022-12-31T03:12:44.123Z,99675.00
2022-12-31T03:15:20.979Z,99678.84
2022-12-31T03:17:54.955Z,99678.84
2022-12-31T03:20:44.710Z,99679.69
2022-12-31T03:23:16.542Z,99685.97
2022-12-31T03:25:44.623Z,99691.78
2022-12-31T03:28:16.977Z,99693.22
2022-12-31T03:30:50.152Z,99698.69
2022-12-31T03:33:21.238Z,99685.84
2022-12-31T03:35:50.790Z,99691.53
2022-12-31T03:38:20.447Z,99689.06
2022-12-31T03:40:50.916Z,99690.13
2022-12-31T03:43:20.298Z,99686.78
2022-12-31T03:45:51.442Z,99696.91
2022-12-31T03:48:22.632Z,99704.53
2022-12-31T03:50:51.460Z,99711.44
2022-12-31T03:53:20.192Z,99709.28
2022-12-31T03:55:53.062Z,99716.44
2022-12-31T03:58:21.964Z,99715.13
2022-12-31T04:00:50.904Z,99715.22
2022-12-31T04:03:20.967Z,99716.97
2022-12-31T04:05:54.908Z,99718.66
2022-12-31T04:08:23.315Z,99712.34
2022-12-31T04:10:51.714Z,99727.34
2022-12-31T04:13:20.192Z,99721.28
2022-12-31T04:15:51.982Z,99729.72
2022-12-31T04:18:21.772Z,99737.94
2022-12-31T04:20:50.189Z,99749.16
2022-12-31T04:23:18.800Z,99756.78
2022-12-31T04:25:47.309Z,99751.28
2022-12-31T04:28:15.722Z,99745.81
2022-12-31T04:30:45.129Z,99749.63
2022-12-31T04:33:13.579Z,99753.78
2022-12-31T04:35:43.347Z,99749.16
2022-12-31T04:38:11.739Z,99761.78
2022-12-31T04:41:00.835Z,99761.78
2022-12-31T04:43:29.358Z,99756.31
2022-12-31T04:45:57.888Z,99764.25
2022-12-31T04:48:26.372Z,99765.09
2022-12-31T04:50:56.133Z,99755.22
2022-12-31T04:53:25.023Z,99748.88
2022-12-31T04:55:53.701Z,99751.03
2022-12-31T04:58:22.901Z,99754.28
2022-12-31T05:00:54.722Z,99747.38
2022-12-31T05:03:25.893Z,99747.13
2022-12-31T05:06:00.815Z,99747.72
2022-12-31T05:08:29.416Z,99753.31
2022-12-31T05:10:57.869Z,99760.69
2022-12-31T05:13:32.774Z,99760.94
2022-12-31T05:16:02.168Z,99759.03
2022-12-31T05:18:31.072Z,99760.09
2022-12-31T05:21:00.968Z,99774.03
2022-12-31T05:23:29.497Z,99774.03
2022-12-31T05:25:59.646Z,99766.88
2022-12-31T05:28:28.097Z,99770.72
2022-12-31T05:30:56.522Z,99770.72
2022-12-31T05:33:24.980Z,99766.28
2022-12-31T05:35:53.393Z,99771.78
2022-12-31T05:38:23.158Z,99782.72
2022-12-31T05:40:51.581Z,99777.25
2022-12-31T05:43:19.964Z,99783.78
2022-12-31T05:45:48.396Z,99787.38
2022-12-31T05:48:16.818Z,99775.09
2022-12-31T05:50:45.201Z,99782.00
2022-12-31T05:53:13.591Z,99786.41
2022-12-31T05:55:43.384Z,99778.44
2022-12-31T05:58:11.767Z,99790.47
2022-12-31T06:00:40.243Z,99786.88
2022-12-31T06:03:08.976Z,99793.44
2022-12-31T06:05:40.887Z,99791.53
2022-12-31T06:08:09.336Z,99786.31
2022-12-31T06:10:37.977Z,99774.50
2022-12-31T06:13:08.142Z,99778.94
2022-12-31T06:15:40.572Z,99777.84
2022-12-31T06:18:09.420Z,99780.31
2022-12-31T06:20:38.658Z,99783.91
2022-12-31T06:23:07.253Z,99777.59
2022-12-31T06:25:37.425Z,99776.78
2022-12-31T06:28:07.669Z,99779.72
2022-12-31T06:30:36.029Z,99792.84
2022-12-31T06:33:04.473Z,99787.38
2022-12-31T06:35:32.864Z,99778.56
2022-12-31T06:38:01.494Z,99778.09
2022-12-31T06:40:30.153Z,99793.44
2022-12-31T06:43:00.296Z,99795.34
2022-12-31T06:45:30.426Z,99781.88
2022-12-31T06:47:58.816Z,99800.84
2022-12-31T06:50:27.236Z,99806.06
2022-12-31T06:52:55.654Z,99814.84
2022-12-31T06:55:24.996Z,99807.81
2022-12-31T06:57:54.246Z,99819.97
2022-12-31T07:00:23.769Z,99817.00
2022-12-31T07:03:17.739Z,99813.41
2022-12-31T07:05:50.778Z,99811.16
2022-12-31T07:08:36.074Z,99816.03
2022-12-31T07:11:13.551Z,99820.91
2022-12-31T07:14:19.503Z,99827.72
2022-12-31T07:17:07.916Z,99826.41
2022-12-31T07:19:57.106Z,99837.94
2022-12-31T07:22:26.841Z,99837.47
2022-12-31T07:24:56.276Z,99841.88
2022-12-31T07:27:46.986Z,99843.53
2022-12-31T07:30:18.842Z,99858.19
2022-12-31T07:33:19.560Z,99857.94
2022-12-31T07:36:06.813Z,99861.84
2022-12-31T07:38:47.954Z,99855.63
2022-12-31T07:41:35.113Z,99855.75
2022-12-31T07:44:09.182Z,99856.13
2022-12-31T07:46:44.283Z,99857.28
2022-12-31T07:49:14.926Z,99861.47
2022-12-31T07:51:45.649Z,99851.66
2022-12-31T07:54:14.545Z,99853.44
2022-12-31T07:56:44.134Z,99849.97
2022-12-31T07:59:33.602Z,99845.91
2022-12-31T08:02:12.164Z,99860.06
2022-12-31T08:04:55.001Z,99864.91
2022-12-31T08:07:34.084Z,99859.03
2022-12-31T08:10:15.678Z,99861.38
2022-12-31T08:12:50.208Z,99869.47
2022-12-31T08:15:24.129Z,99866.31
2022-12-31T08:17:56.144Z,99852.69
2022-12-31T08:20:24.681Z,99852.53
2022-12-31T08:23:25.820Z,99856.13
2022-12-31T08:26:13.079Z,99852.88
2022-12-31T08:28:57.924Z,99851.78
2022-12-31T08:31:36.527Z,99857.63
2022-12-31T08:34:15.455Z,99865.34
2022-12-31T08:36:53.383Z,99862.59
2022-12-31T08:39:46.088Z,99870.25
2022-12-31T08:42:26.007Z,99878.22
2022-12-31T08:45:07.277Z,99877.16
2022-12-31T08:47:46.772Z,99882.75
2022-12-31T08:50:17.769Z,99891.38
2022-12-31T08:52:47.549Z,99900.59
2022-12-31T08:55:21.193Z,99890.19
2022-12-31T08:58:01.683Z,99896.25
2022-12-31T09:00:31.741Z,99907.56
2022-12-31T09:03:23.737Z,99904.00
2022-12-31T09:06:02.806Z,99895.03
2022-12-31T09:08:40.841Z,99894.28
2022-12-31T09:11:22.929Z,99886.69
2022-12-31T09:14:41.686Z,99886.75
2022-12-31T09:17:32.330Z,99852.47
2022-12-31T09:20:01.535Z,99878.88
2022-12-31T09:22:30.649Z,99892.59
2022-12-31T09:24:59.821Z,99884.94
2022-12-31T09:27:36.271Z,99905.56
2022-12-31T09:30:08.736Z,99905.88
2022-12-31T09:32:48.653Z,99874.59
2022-12-31T09:35:30.702Z,99895.50
2022-12-31T09:38:11.473Z,99880.19
2022-12-31T09:41:13.061Z,99890.41
2022-12-31T09:44:25.755Z,99898.22
2022-12-31T09:47:42.013Z,99892.31
2022-12-31T09:51:05.261Z,99889.09
2022-12-31T09:53:43.404Z,99891.44
2022-12-31T09:56:21.772Z,99879.97
2022-12-31T09:59:04.159Z,99876.81
2022-12-31T10:01:50.633Z,99881.84
2022-12-31T10:05:07.092Z,99881.66
2022-12-31T10:07:53.585Z,99876.78
2022-12-31T10:10:31.462Z,99868.38
2022-12-31T10:13:39.676Z,99865.91
2022-12-31T10:16:48.918Z,99869.84
2022-12-31T10:19:55.471Z,99869.59
2022-12-31T10:22:47.579Z,99868.81
2022-12-31T10:26:02.216Z,99849.34
2022-12-31T10:28:41.435Z,99870.09
2022-12-31T10:31:17.716Z,99859.16
2022-12-31T10:33:58.210Z,99851.00
2022-12-31T10:36:36.113Z,99851.94
2022-12-31T10:39:24.273Z,99849.78
2022-12-31T10:42:46.285Z,99852.06
2022-12-31T10:46:09.147Z,99855.69
2022-12-31T10:49:27.941Z,99857.97
2022-12-31T10:52:46.298Z,99848.63
2022-12-31T10:56:15.915Z,99836.25
2022-12-31T10:59:31.412Z,99826.66
2022-12-31T11:02:28.254Z,99822.53
2022-12-31T11:05:57.291Z,99820.63
2022-12-31T11:09:07.823Z,99809.97
2022-12-31T11:11:46.329Z,99817.16
2022-12-31T11:14:53.056Z,99813.31
2022-12-31T11:17:38.715Z,99814.97
2022-12-31T11:20:39.888Z,99811.50
2022-12-31T11:23:28.108Z,99804.69
2022-12-31T11:26:06.296Z,99813.84
2022-12-31T11:29:01.570Z,99809.47
2022-12-31T11:31:52.367Z,99797.28
2022-12-31T11:35:15.045Z,99787.06
2022-12-31T11:37:49.092Z,99783.53
2022-12-31T11:40:34.856Z,99790.97
2022-12-31T11:43:16.258Z,99795.09
2022-12-31T11:46:15.891Z,99793.16
2022-12-31T11:49:00.683Z,99789.56
2022-12-31T11:51:53.343Z,99786.81
2022-12-31T11:55:13.036Z,99792.91
2022-12-31T11:57:47.759Z,99781.88
2022-12-31T12:00:20.840Z,99773.94
2022-12-31T12:02:52.155Z,99773.94
2022-12-31T12:05:23.938Z,99781.94
2022-12-31T12:07:54.786Z,99786.41
2022-12-31T12:10:33.779Z,99796.59
2022-12-31T12:13:20.705Z,99787.22
2022-12-31T12:15:52.107Z,99792.19
2022-12-31T12:18:30.298Z,99786.38
2022-12-31T12:21:10.913Z,99771.47
2022-12-31T12:23:40.370Z,99781.09
2022-12-31T12:26:26.255Z,99770.91
2022-12-31T12:28:56.077Z,99796.56
2022-12-31T12:31:26.925Z,99764.59
2022-12-31T12:33:55.435Z,99786.38
2022-12-31T12:36:23.805Z,99802.38
2022-12-31T12:39:03.804Z,99791.03
2022-12-31T12:41:33.018Z,99785.28
2022-12-31T12:44:08.282Z,99791.34
2022-12-31T12:46:48.041Z,99796.28
2022-12-31T12:49:25.906Z,99789.97
2022-12-31T12:52:26.998Z,99787.22
2022-12-31T12:55:11.728Z,99781.69
2022-12-31T12:57:51.613Z,99786.94
2022-12-31T13:00:25.096Z,99788.06
2022-12-31T13:03:35.619Z,99783.66
2022-12-31T13:06:29.339Z,99786.41
2022-12-31T13:09:15.554Z,99778.19
2022-12-31T13:11:58.976Z,99782.88
2022-12-31T13:14:38.051Z,99788.66
2022-12-31T13:17:30.763Z,99782.31
2022-12-31T13:20:06.745Z,99796.66
2022-12-31T13:22:41.144Z,99790.03
2022-12-31T13:25:25.413Z,99784.81
2022-12-31T13:27:58.324Z,99793.34
2022-12-31T13:30:33.429Z,99792.78
2022-12-31T13:33:15.538Z,99798.31
2022-12-31T13:35:49.550Z,99795.31
2022-12-31T13:38:23.847Z,99798.31
2022-12-31T13:41:03.102Z,99789.22
2022-12-31T13:43:44.585Z,99797.47
2022-12-31T13:46:24.861Z,99799.38
2022-12-31T13:48:59.442Z,99801.03
2022-12-31T13:51:41.251Z,99794.41
2022-12-31T13:54:25.841Z,99808.47
2022-12-31T13:56:54.929Z,99804.59
2022-12-31T13:59:29.548Z,99807.63
2022-12-31T14:02:09.381Z,99812.59
2022-12-31T14:04:46.283Z,99807.59
2022-12-31T14:07:20.850Z,99811.19
2022-12-31T14:09:49.515Z,99816.41
2022-12-31T14:12:33.692Z,99815.00
2022-12-31T14:15:15.326Z,99822.19
2022-12-31T14:17:51.749Z,99811.69
2022-12-31T14:20:30.502Z,99817.16
2022-12-31T14:23:12.113Z,99817.97
2022-12-31T14:25:46.512Z,99813.28
2022-12-31T14:28:21.940Z,99816.59
2022-12-31T14:30:54.996Z,99820.72
2022-12-31T14:33:38.845Z,99811.06
2022-12-31T14:36:29.154Z,99818.22
2022-12-31T14:39:17.692Z,99819.56
2022-12-31T14:41:59.284Z,99823.94
2022-12-31T14:44:52.064Z,99823.94
2022-12-31T14:47:34.063Z,99829.16
2022-12-31T14:50:11.059Z,99828.88
2022-12-31T14:52:53.336Z,99824.41
2022-12-31T14:55:33.766Z,99826.28
2022-12-31T15:00:55.908Z,99827.06
2022-12-31T15:03:34.798Z,99823.19
2022-12-31T15:06:42.166Z,99817.31
2022-12-31T15:09:24.643Z,99815.34
2022-12-31T15:12:18.556Z,99815.06
2022-12-31T15:15:29.348Z,99821.63
2022-12-31T15:18:15.121Z,99802.06
2022-12-31T15:21:14.236Z,99813.84
2022-12-31T15:23:46.238Z,99816.88
2022-12-31T15:26:25.135Z,99827.91
2022-12-31T15:29:03.828Z,99824.03
2022-12-31T15:31:34.899Z,99817.44
2022-12-31T15:34:05.988Z,99823.53
2022-12-31T15:36:38.630Z,99822.16
2022-12-31T15:39:28.067Z,99820.50
2022-12-31T15:44:53.024Z,99823.28
2022-12-31T15:47:29.994Z,99823.84
2022-12-31T15:50:03.634Z,99818.91
2022-12-31T15:52:40.879Z,99816.72
2022-12-31T15:55:17.521Z,99815.63
2022-12-31T15:57:48.191Z,99818.09
2022-12-31T16:00:22.396Z,99817.59
2022-12-31T16:02:54.607Z,99820.91
2022-12-31T16:05:26.306Z,99813.47
2022-12-31T16:07:56.541Z,99820.63
2022-12-31T16:10:29.665Z,99822.28
2022-12-31T16:13:00.892Z,99829.47
2022-12-31T16:15:32.612Z,99842.16
2022-12-31T16:18:05.736Z,99847.38
2022-12-31T16:20:42.449Z,99846.28
2022-12-31T16:23:25.033Z,99848.78
2022-12-31T16:25:59.110Z,99855.69
2022-12-31T16:28:32.589Z,99859.00
2022-12-31T16:31:05.193Z,99866.75
2022-12-31T16:33:35.675Z,99851.88
2022-12-31T16:36:08.420Z,99862.06
2022-12-31T16:38:46.656Z,99862.59
2022-12-31T16:41:21.235Z,99856.53
2022-12-31T16:43:52.678Z,99865.06
2022-12-31T16:46:27.120Z,99873.00
2022-12-31T16:48:58.320Z,99866.09
2022-12-31T16:51:31.874Z,99867.47
2022-12-31T16:54:02.516Z,99860.31
2022-12-31T16:56:35.866Z,99853.69
2022-12-31T16:59:14.223Z,99856.09
2022-12-31T17:01:43.710Z,99850.59
2022-12-31T17:04:18.006Z,99852.78
2022-12-31T17:06:46.518Z,99848.13
2022-12-31T17:09:20.828Z,99844.53
2022-12-31T17:11:54.520Z,99837.63
2022-12-31T17:14:26.885Z,99845.31
2022-12-31T17:17:02.997Z,99830.44
2022-12-31T17:19:45.009Z,99838.66
2022-12-31T17:22:32.801Z,99844.66
2022-12-31T17:25:06.637Z,99837.19
2022-12-31T17:27:36.944Z,99833.03
2022-12-31T17:30:40.414Z,99831.63
2022-12-31T17:33:32.641Z,99837.09
2022-12-31T17:36:24.125Z,99835.63
2022-12-31T17:38:52.617Z,99829.84
2022-12-31T17:41:27.360Z,99831.69
2022-12-31T17:43:57.872Z,99832.22
2022-12-31T17:46:28.232Z,99834.66
2022-12-31T17:49:02.913Z,99839.84
2022-12-31T17:51:31.411Z,99842.28
2022-12-31T17:54:01.823Z,99836.47
2022-12-31T17:56:30.379Z,99836.16
2022-12-31T17:59:00.477Z,99834.75
2022-12-31T18:01:30.633Z,99844.63
2022-12-31T18:03:59.302Z,99843.22
2022-12-31T18:06:27.804Z,99840.75
2022-12-31T18:08:56.266Z,99842.09
2022-12-31T18:11:26.093Z,99845.31
2022-12-31T18:13:55.411Z,99849.41
2022-12-31T18:16:23.971Z,99836.75
2022-12-31T18:18:53.826Z,99848.00
2022-12-31T18:21:29.206Z,99841.09
2022-12-31T18:26:26.662Z,99836.13
2022-12-31T18:28:55.944Z,99839.97
2022-12-31T18:31:28.323Z,99836.66
2022-12-31T18:34:00.151Z,99840.47
2022-12-31T18:36:30.365Z,99833.56
2022-12-31T18:38:58.799Z,99841.00
2022-12-31T18:41:35.462Z,99839.31
2022-12-31T18:44:03.972Z,99848.66
2022-12-31T18:46:32.506Z,99850.84
2022-12-31T18:49:02.368Z,99855.25
2022-12-31T18:51:32.433Z,99858.28
2022-12-31T18:54:01.340Z,99846.66
2022-12-31T18:56:30.127Z,99847.78
2022-12-31T18:58:59.788Z,99851.59
2022-12-31T19:01:31.596Z,99844.69
2022-12-31T19:04:04.396Z,99844.69
2022-12-31T19:06:32.929Z,99841.13
2022-12-31T19:09:01.409Z,99841.38
2022-12-31T19:11:30.007Z,99844.38
2022-12-31T19:13:58.434Z,99839.16
2022-12-31T19:16:26.943Z,99832.81
2022-12-31T19:18:55.774Z,99835.81
2022-12-31T19:21:25.667Z,99832.50
2022-12-31T19:23:55.653Z,99833.59
2022-12-31T19:26:24.545Z,99830.28
2022-12-31T19:28:53.083Z,99834.38
2022-12-31T19:31:21.524Z,99847.53
2022-12-31T19:33:49.996Z,99839.78
2022-12-31T19:36:20.980Z,99842.19
2022-12-31T19:38:50.788Z,99841.63
2022-12-31T19:41:21.358Z,99836.66
2022-12-31T19:43:50.629Z,99831.41
2022-12-31T19:46:19.990Z,99838.22
2022-12-31T19:48:48.686Z,99832.16
2022-12-31T19:51:19.825Z,99829.69
2022-12-31T19:53:50.910Z,99830.75
2022-12-31T19:56:21.335Z,99822.78
2022-12-31T19:58:49.799Z,99820.28
2022-12-31T20:01:22.086Z,99822.47
2022-12-31T20:03:51.193Z,99819.72
2022-12-31T20:06:20.751Z,99829.03
2022-12-31T20:08:50.572Z,99818.31
2022-12-31T20:11:21.386Z,99825.97
2022-12-31T20:13:52.251Z,99840.53
2022-12-31T20:16:23.762Z,99831.72
2022-12-31T20:18:52.402Z,99825.38
2022-12-31T20:21:24.142Z,99835.56
2022-12-31T20:23:55.826Z,99828.38
2022-12-31T20:26:26.501Z,99831.41
2022-12-31T20:28:55.270Z,99832.25
2022-12-31T20:31:26.511Z,99831.41
2022-12-31T20:33:56.112Z,99835.78
2022-12-31T20:36:25.833Z,99836.31
2022-12-31T20:38:55.742Z,99839.06
2022-12-31T20:41:25.083Z,99829.16
2022-12-31T20:43:53.703Z,99830.22
2022-12-31T20:46:24.730Z,99828.56
2022-12-31T20:48:55.514Z,99827.75
2022-12-31T20:51:25.977Z,99823.91
2022-12-31T20:53:58.048Z,99832.38
2022-12-31T20:56:31.440Z,99832.66
2022-12-31T20:59:00.697Z,99837.09
2022-12-31T21:01:48.108Z,99832.66
2022-12-31T21:04:18.505Z,99832.91
2022-12-31T21:06:48.000Z,99834.00
2022-12-31T21:09:17.857Z,99828.75
2022-12-31T21:12:03.570Z,99835.31
2022-12-31T21:14:32.029Z,99825.94
2022-12-31T21:17:00.458Z,99830.59
2022-12-31T21:19:28.947Z,99846.22
2022-12-31T21:21:57.425Z,99848.97
2022-12-31T21:24:27.265Z,99848.16
2022-12-31T21:26:57.064Z,99839.31
2022-12-31T21:29:27.816Z,99836.56
2022-12-31T21:31:59.973Z,99843.16
2022-12-31T21:34:28.433Z,99836.84
2022-12-31T21:36:57.075Z,99833.25
2022-12-31T21:39:26.914Z,99839.00
2022-12-31T21:41:55.403Z,99842.81
2022-12-31T21:44:26.061Z,99841.44
2022-12-31T21:47:38.252Z,99838.94
2022-12-31T21:50:09.522Z,99847.44
2022-12-31T21:52:38.062Z,99841.34
2022-12-31T21:55:27.197Z,99839.94
2022-12-31T22:01:16.537Z,99836.28
2022-12-31T22:03:45.593Z,99841.19
2022-12-31T22:06:20.527Z,99834.53
2022-12-31T22:08:51.559Z,99824.91
2022-12-31T22:11:24.681Z,99821.56
2022-12-31T22:13:54.634Z,99827.28
2022-12-31T22:16:24.065Z,99821.22
2022-12-31T22:18:55.595Z,99820.41
2022-12-31T22:21:25.775Z,99818.75
2022-12-31T22:23:56.285Z,99820.66
2022-12-31T22:26:29.020Z,99821.94
2022-12-31T22:28:59.559Z,99824.09
2022-12-31T22:31:31.219Z,99823.53
2022-12-31T22:34:00.332Z,99825.44
2022-12-31T22:36:28.899Z,99828.44
2022-12-31T22:38:59.992Z,99827.88
2022-12-31T22:41:30.287Z,99830.03
2022-12-31T22:44:04.034Z,99829.19
2022-12-31T22:46:34.846Z,99827.50
2022-12-31T22:49:05.368Z,99826.94
2022-12-31T22:51:57.671Z,99829.69
2022-12-31T22:54:23.002Z,99817.88
2022-12-31T22:56:52.886Z,99818.69
2022-12-31T22:59:21.314Z,99817.06
2022-12-31T23:01:49.753Z,99810.72
2022-12-31T23:04:18.299Z,99815.13
2022-12-31T23:06:46.790Z,99818.69
2022-12-31T23:09:34.833Z,99819.81
2022-12-31T23:12:06.131Z,99833.75
2022-12-31T23:14:52.583Z,99831.84
2022-12-31T23:17:42.101Z,99833.75
2022-12-31T23:20:32.797Z,99842.25
2022-12-31T23:23:08.235Z,99839.75
2022-12-31T23:25:39.305Z,99845.47
2022-12-31T23:28:11.586Z,99840.25
2022-12-31T23:30:41.060Z,99836.06
2022-12-31T23:33:13.521Z,99844.31
2022-12-31T23:35:41.961Z,99843.47
2022-12-31T23:38:10.648Z,99849.22
2022-12-31T23:40:39.262Z,99853.03
2022-12-31T23:43:11.805Z,99860.66
2022-12-31T23:45:40.274Z,99857.34
2022-12-31T23:48:08.750Z,99852.97
2022-12-31T23:50:37.244Z,99846.84
2022-12-31T23:53:05.721Z,99841.63
2022-12-31T23:55:34.188Z,99841.88
2022-12-31T23:58:02.664Z,99837.72
